Time;durP1;ratioP1;P1;durP2;ratioP2;P2;SDS_P1;SDS_P2;PMS_P1;PMS_P2;Temp;Humidity;BMP_temperature;BMP_pressure;BME280_temperature;BME280_humidity;BME280_pressure;Samples;Min_cycle;Max_cycle;Signal;HPM_P1;HPM_P2
2022/09/06 00:09:36;;;;;;;5.35;1.88;;;;;;;14.90;51.53;100886.31;30730362;28;96529;-61
2022/09/06 00:24:37;;;;;;;3.10;1.48;;;;;;;14.71;51.12;100867.00;30743197;28;96802;-59
2022/09/06 00:39:37;;;;;;;2.85;1.20;;;;;;;14.45;51.72;100872.72;30748442;28;97327;-59
2022/09/06 00:54:38;;;;;;;4.63;2.00;;;;;;;14.42;51.44;100858.84;30747061;28;97345;-60
2022/09/06 01:09:56;;;;;;;4.23;1.40;;;;;;;14.06;51.91;100876.31;30745336;28;97159;-60
2022/09/06 01:25:09;;;;;;;3.00;1.57;;;;;;;13.79;52.38;100857.06;30744236;28;102410;-59
2022/09/06 01:40:09;;;;;;;4.27;1.50;;;;;;;13.51;52.57;100867.38;30741486;28;96807;-60
2022/09/06 01:55:34;;;;;;;6.03;1.70;;;;;;;13.49;53.58;100864.03;30741268;28;96743;-60
2022/09/06 02:10:44;;;;;;;3.57;1.53;;;;;;;13.23;53.54;100864.25;30740140;28;96728;-60
2022/09/06 02:25:51;;;;;;;4.27;1.87;;;;;;;13.07;54.12;100865.97;30738520;28;104639;-59
2022/09/06 02:40:52;;;;;;;3.57;1.70;;;;;;;12.90;55.18;100842.91;30736593;28;96766;-59
2022/09/06 02:55:53;;;;;;;4.73;1.53;;;;;;;12.89;55.51;100844.78;30735445;28;96985;-60
2022/09/06 03:10:55;;;;;;;3.03;1.20;;;;;;;12.98;55.18;100830.34;30733471;28;105705;-60
2022/09/06 03:25:56;;;;;;;4.13;1.57;;;;;;;12.92;55.56;100835.59;30731787;28;96734;-60
2022/09/06 03:40:56;;;;;;;5.13;1.75;;;;;;;12.85;55.96;100828.22;30727682;28;97018;-59
2022/09/06 03:55:57;;;;;;;6.25;1.75;;;;;;;12.71;56.49;100828.88;30738004;28;97341;-60
2022/09/06 04:10:58;;;;;;;3.35;1.85;;;;;;;12.74;56.69;100820.56;30822498;28;96746;-61
2022/09/06 04:25:58;;;;;;;3.70;1.50;;;;;;;12.87;56.99;100817.34;30865928;28;97639;-64
2022/09/06 04:40:59;;;;;;;5.22;2.10;;;;;;;13.03;56.82;100811.97;30863514;28;96898;-61
2022/09/06 04:55:59;;;;;;;3.88;1.58;;;;;;;12.99;56.63;100815.16;30862554;28;118376;-60
2022/09/06 05:10:59;;;;;;;4.32;1.70;;;;;;;13.09;56.35;100815.78;30858964;28;109602;-60
2022/09/06 05:25:59;;;;;;;3.58;1.92;;;;;;;13.36;56.18;100827.13;30860160;28;97542;-60
2022/09/06 05:41:00;;;;;;;5.50;1.92;;;;;;;13.72;56.09;100842.69;30859403;28;101389;-62
2022/09/06 05:56:00;;;;;;;4.75;1.67;;;;;;;14.04;55.66;100840.84;30858135;28;122451;-60
2022/09/06 06:11:01;;;;;;;6.90;1.80;;;;;;;14.97;54.73;100835.44;30856519;28;97031;-60
2022/09/06 06:26:01;;;;;;;4.25;1.92;;;;;;;15.59;52.92;100849.50;30854943;28;96833;-59
2022/09/06 06:41:03;;;;;;;6.22;1.73;;;;;;;15.39;52.78;100845.53;30852985;28;96889;-60
2022/09/06 06:56:14;;;;;;;5.37;1.90;;;;;;;15.27;52.57;100841.66;30852782;28;97178;-60
2022/09/06 07:11:16;;;;;;;8.20;2.00;;;;;;;15.22;52.90;100836.81;30851434;28;96871;-60
2022/09/06 07:26:18;;;;;;;;;;;;;;;15.50;53.89;100843.38;30852497;28;96692;-59
2022/09/06 07:41:19;;;;;;;3.47;2.20;;;;;;;15.79;53.79;100858.63;30870329;28;96724;-60
2022/09/06 07:56:21;;;;;;;6.33;2.07;;;;;;;15.78;54.08;100865.00;30866506;28;98665;-60
2022/09/06 08:11:25;;;;;;;7.33;2.73;;;;;;;16.40;53.81;100857.44;30868726;28;96773;-59
2022/09/06 08:26:26;;;;;;;5.37;2.43;;;;;;;17.75;51.70;100833.09;30865253;28;96673;-60
2022/09/06 08:41:47;;;;;;;4.80;2.40;;;;;;;19.28;49.11;100832.34;30862834;28;96770;-63
2022/09/06 08:56:58;;;;;;;6.47;2.07;;;;;;;20.74;45.29;100833.66;30862208;28;97092;-60
2022/09/06 09:12:00;;;;;;;6.23;2.70;;;;;;;26.82;37.99;100831.84;30862628;28;99755;-62
2022/09/06 09:27:10;;;;;;;6.37;2.20;;;;;;;36.48;22.90;100833.19;30862059;28;96804;-60
2022/09/06 09:42:10;;;;;;;10.13;2.33;;;;;;;30.32;26.59;100822.56;30860496;28;97113;-60
2022/09/06 09:57:16;;;;;;;6.85;2.38;;;;;;;25.45;31.57;100817.41;30856382;28;114504;-60
2022/09/06 10:12:39;;;;;;;4.90;2.40;;;;;;;26.92;30.33;100807.28;30857304;28;96657;-60
2022/09/06 10:27:55;;;;;;;5.30;2.40;;;;;;;28.02;29.37;100788.25;30854494;28;97511;-59
2022/09/06 10:42:59;;;;;;;4.73;2.03;;;;;;;34.49;22.30;100759.41;30852819;28;97371;-60
2022/09/06 10:58:03;;;;;;;5.77;2.33;;;;;;;36.16;20.07;100732.78;30853122;28;97505;-61
2022/09/06 11:13:18;;;;;;;5.13;2.00;;;;;;;36.33;19.34;100709.72;30851878;28;96963;-61
2022/09/06 11:28:29;;;;;;;3.87;1.90;;;;;;;31.52;21.58;100722.75;30848490;28;97996;-61
2022/09/06 11:43:48;;;;;;;3.97;1.90;;;;;;;31.17;22.21;100726.84;30837812;28;97443;-62
2022/09/06 11:59:14;;;;;;;5.00;2.03;;;;;;;28.02;25.83;100714.34;30815335;28;97626;-61
2022/09/06 12:14:28;;;;;;;3.03;2.00;;;;;;;27.43;26.65;100704.69;30794532;28;98156;-62
2022/09/06 12:29:28;;;;;;;5.57;2.03;;;;;;;26.70;28.03;100687.22;30821765;28;106746;-62
2022/09/06 12:44:42;;;;;;;5.45;2.40;;;;;;;26.84;28.18;100679.34;30923798;28;97817;-61
2022/09/06 12:59:54;;;;;;;6.10;2.10;;;;;;;28.69;27.24;100673.13;30901989;28;97640;-63
2022/09/06 13:14:58;;;;;;;6.53;2.10;;;;;;;29.07;26.21;100629.59;30908720;28;98366;-63
2022/09/06 13:30:01;;;;;;;4.53;2.03;;;;;;;28.46;26.60;100617.00;30923712;28;98539;-62
2022/09/06 13:45:26;;;;;;;3.33;2.00;;;;;;;27.55;27.41;100603.22;30913887;28;97536;-63
2022/09/06 14:00:27;;;;;;;4.30;2.20;;;;;;;27.12;28.09;100604.25;30915387;28;96906;-62
2022/09/06 14:15:27;;;;;;;5.10;2.33;;;;;;;26.16;29.15;100588.03;30851914;28;97582;-62
2022/09/06 14:30:28;;;;;;;4.72;2.08;;;;;;;25.33;30.53;100575.69;30879699;28;97387;-62
2022/09/06 14:45:29;;;;;;;3.00;1.85;;;;;;;24.58;32.01;100569.16;30877683;28;97532;-67
2022/09/06 15:00:30;;;;;;;5.05;2.10;;;;;;;24.27;33.16;100557.88;30836190;28;97438;-62
2022/09/06 15:15:31;;;;;;;3.87;1.60;;;;;;;24.23;32.99;100551.31;30838950;28;97040;-63
2022/09/06 15:30:31;;;;;;;5.13;2.20;;;;;;;23.36;34.09;100553.53;30844433;28;97588;-62
2022/09/06 15:45:44;;;;;;;;;;;;;;;22.59;35.27;100534.75;30799171;28;97236;-60
2022/09/06 16:00:45;;;;;;;3.30;1.37;;;;;;;21.73;36.40;100516.38;30838226;28;97194;-61
2022/09/06 16:15:58;;;;;;;3.73;1.50;;;;;;;20.99;37.94;100529.47;30801040;28;97300;-60
2022/09/06 16:31:01;;;;;;;3.50;1.63;;;;;;;20.63;39.03;100499.53;30790858;28;97402;-64
2022/09/06 16:46:02;;;;;;;3.77;1.73;;;;;;;20.43;39.84;100491.69;30793528;28;97186;-61
2022/09/06 17:01:03;;;;;;;4.77;2.03;;;;;;;19.91;40.60;100478.56;30764629;28;96848;-60
2022/09/06 17:31:24;;;;;;;5.60;1.73;;;;;;;18.83;42.81;100478.63;30735998;28;96984;-65
2022/09/06 17:46:25;;;;;;;7.20;1.70;;;;;;;18.51;43.44;100502.06;30740246;28;97306;-64
2022/09/06 18:01:28;;;;;;;3.33;1.60;;;;;;;18.08;44.26;100508.84;30739072;28;96764;-64
2022/09/06 18:16:30;;;;;;;6.23;1.97;;;;;;;17.62;45.23;100515.13;30733864;28;96915;-60
2022/09/06 18:31:30;;;;;;;6.40;2.00;;;;;;;17.43;46.02;100517.66;30731353;28;96998;-60
2022/09/06 18:46:33;;;;;;;4.60;1.50;;;;;;;17.41;46.03;100519.72;30732632;28;96886;-60
2022/09/06 19:01:35;;;;;;;3.57;2.07;;;;;;;17.16;46.50;100509.56;30733339;28;96910;-60
2022/09/06 19:16:35;;;;;;;5.03;2.33;;;;;;;16.85;47.07;100510.94;30794562;28;97026;-60
2022/09/06 19:31:36;;;;;;;6.18;2.00;;;;;;;16.78;47.54;100506.56;30842797;28;97313;-60
2022/09/06 19:46:38;;;;;;;5.33;2.30;;;;;;;16.78;47.33;100496.63;30840752;28;97067;-60
2022/09/06 20:01:40;;;;;;;3.73;1.67;;;;;;;16.66;47.58;100490.19;30841503;28;97080;-60
2022/09/06 20:16:40;;;;;;;;;;;;;;;16.41;47.60;100472.72;30841143;28;97535;-61
2022/09/06 20:31:41;;;;;;;3.35;1.80;;;;;;;16.04;48.14;100469.50;30810017;28;97689;-60
2022/09/06 20:46:42;;;;;;;5.60;2.15;;;;;;;15.94;48.95;100465.50;30738310;28;97136;-60
2022/09/06 21:01:44;;;;;;;4.90;1.92;;;;;;;15.67;49.01;100454.59;30745372;28;96726;-59
2022/09/06 21:16:45;;;;;;;;;;;;;;;15.36;49.47;100445.94;30745765;28;96767;-60
2022/09/06 21:31:45;;;;;;;6.15;2.22;;;;;;;15.11;50.34;100455.44;30743576;28;96746;-59
2022/09/06 21:46:45;;;;;;;5.72;1.88;;;;;;;14.96;50.86;100458.19;30740556;28;96737;-59
2022/09/06 22:01:46;;;;;;;3.10;1.90;;;;;;;14.81;50.88;100437.63;30741318;28;97178;-59
2022/09/06 22:16:46;;;;;;;17.15;7.47;;;;;;;14.75;51.46;100425.00;30739846;28;97081;-60
2022/09/06 22:31:47;;;;;;;5.82;1.83;;;;;;;14.81;51.36;100408.13;30737363;28;96739;-60
2022/09/06 22:46:47;;;;;;;3.15;1.63;;;;;;;14.87;51.52;100430.66;30737269;28;96794;-60
2022/09/06 23:01:48;;;;;;;5.53;2.40;;;;;;;14.97;51.67;100406.22;30735480;28;96720;-60
2022/09/06 23:16:48;;;;;;;5.65;2.17;;;;;;;15.01;51.45;100410.97;30734647;28;96647;-60
2022/09/06 23:31:49;;;;;;;4.43;2.33;;;;;;;14.95;51.57;100402.88;30732915;28;97492;-60
2022/09/06 23:46:49;;;;;;;5.57;2.00;;;;;;;14.91;51.66;100385.50;30732141;28;96821;-60
